createdAt,value
2022-10-28T00:01:35.552Z,5.00
2022-10-28T00:03:39.635Z,4.90
2022-10-28T00:05:41.343Z,5.10
2022-10-28T00:07:43.268Z,4.53
2022-10-28T00:09:45.201Z,5.00
2022-10-28T00:11:47.185Z,5.03
2022-10-28T00:13:50.856Z,5.00
2022-10-28T00:15:52.582Z,4.93
2022-10-28T00:17:54.541Z,4.73
2022-10-28T00:19:56.770Z,4.90
2022-10-28T00:21:59.097Z,4.37
2022-10-28T00:24:00.943Z,4.57
2022-10-28T00:26:10.139Z,4.87
2022-10-28T00:28:11.986Z,4.87
2022-10-28T00:30:13.802Z,5.00
2022-10-28T00:32:19.539Z,4.90
2022-10-28T00:34:21.798Z,4.60
2022-10-28T00:36:29.102Z,4.37
2022-10-28T00:38:31.050Z,5.20
2022-10-28T00:40:36.202Z,4.97
2022-10-28T00:42:37.925Z,5.00
2022-10-28T00:44:40.250Z,5.27
2022-10-28T00:46:47.755Z,4.37
2022-10-28T00:48:54.638Z,5.40
2022-10-28T00:50:56.601Z,4.70
2022-10-28T00:53:06.305Z,4.93
2022-10-28T00:55:09.054Z,5.37
2022-10-28T00:57:16.890Z,5.13
2022-10-28T00:59:28.814Z,5.00
2022-10-28T01:01:30.838Z,5.10
2022-10-28T01:03:32.844Z,4.97
2022-10-28T01:05:38.999Z,4.80
2022-10-28T01:07:40.874Z,5.20
2022-10-28T01:09:42.883Z,5.00
2022-10-28T01:12:09.154Z,4.83
2022-10-28T01:14:27.491Z,4.57
2022-10-28T01:16:43.067Z,4.90
2022-10-28T01:19:09.818Z,4.90
2022-10-28T01:21:48.201Z,5.33
2022-10-28T01:24:11.217Z,4.73
2022-10-28T01:26:22.015Z,4.77
2022-10-28T01:28:48.421Z,4.77
2022-10-28T01:31:08.677Z,4.90
2022-10-28T01:33:41.356Z,5.30
2022-10-28T01:36:03.779Z,4.93
2022-10-28T01:38:14.401Z,4.70
2022-10-28T01:40:31.069Z,5.13
2022-10-28T01:42:45.819Z,4.80
2022-10-28T01:45:08.461Z,4.90
2022-10-28T01:47:31.254Z,4.83
2022-10-28T01:49:59.430Z,4.90
2022-10-28T01:52:04.987Z,4.93
2022-10-28T01:54:08.992Z,4.57
2022-10-28T01:56:17.609Z,4.77
2022-10-28T01:58:23.923Z,5.07
2022-10-28T02:00:26.697Z,4.53
2022-10-28T02:02:33.695Z,4.93
2022-10-28T02:04:35.672Z,4.40
2022-10-28T02:06:41.120Z,5.10
2022-10-28T02:08:59.752Z,5.00
2022-10-28T02:11:01.835Z,5.20
2022-10-28T02:13:07.840Z,4.50
2022-10-28T02:15:29.339Z,4.97
2022-10-28T02:18:01.613Z,4.47
2022-10-28T02:20:34.820Z,4.47
2022-10-28T02:22:51.588Z,4.50
2022-10-28T02:25:19.215Z,4.50
2022-10-28T02:27:33.895Z,4.77
2022-10-28T02:29:56.144Z,4.60
2022-10-28T02:32:21.443Z,4.77
2022-10-28T02:34:39.489Z,4.33
2022-10-28T02:36:45.993Z,4.93
2022-10-28T02:38:53.609Z,4.47
2022-10-28T02:41:00.820Z,3.97
2022-10-28T02:43:06.546Z,4.13
2022-10-28T02:45:18.366Z,4.17
2022-10-28T02:47:25.717Z,4.20
2022-10-28T02:49:28.894Z,4.20
2022-10-28T02:51:42.615Z,4.10
2022-10-28T02:53:58.779Z,4.07
2022-10-28T02:56:03.277Z,4.03
2022-10-28T02:58:05.854Z,4.17
2022-10-28T03:00:15.107Z,4.03
2022-10-28T03:02:16.854Z,3.63
2022-10-28T03:04:19.281Z,4.20
2022-10-28T03:06:21.025Z,3.90
2022-10-28T03:08:26.700Z,3.80
2022-10-28T03:10:28.768Z,4.20
2022-10-28T03:12:30.704Z,4.10
2022-10-28T03:14:32.507Z,3.67
2022-10-28T03:16:34.391Z,4.00
2022-10-28T03:18:37.386Z,3.60
2022-10-28T03:20:39.037Z,3.53
2022-10-28T03:22:44.082Z,3.97
2022-10-28T03:24:48.499Z,4.20
2022-10-28T03:26:50.229Z,3.97
2022-10-28T03:28:55.452Z,3.77
2022-10-28T03:30:57.343Z,3.57
2022-10-28T03:32:59.075Z,3.90
2022-10-28T03:35:00.773Z,4.10
2022-10-28T03:37:02.508Z,3.90
2022-10-28T03:39:04.318Z,3.90
2022-10-28T03:41:06.093Z,4.40
2022-10-28T03:43:08.111Z,3.67
2022-10-28T03:45:10.353Z,4.00
2022-10-28T03:47:12.029Z,4.07
2022-10-28T03:49:13.756Z,4.33
2022-10-28T03:51:15.667Z,4.30
2022-10-28T03:53:17.443Z,4.37
2022-10-28T03:55:19.241Z,4.17
2022-10-28T03:57:21.050Z,4.40
2022-10-28T03:59:22.924Z,4.40
2022-10-28T04:01:24.958Z,4.30
2022-10-28T04:03:26.945Z,4.47
2022-10-28T04:05:28.658Z,3.97
2022-10-28T04:07:30.637Z,4.30
2022-10-28T04:09:32.392Z,4.07
2022-10-28T04:11:34.125Z,3.97
2022-10-28T04:13:35.922Z,4.47
2022-10-28T04:15:37.698Z,4.90
2022-10-28T04:17:39.432Z,4.30
2022-10-28T04:19:41.209Z,4.80
2022-10-28T04:21:42.896Z,4.53
2022-10-28T04:23:44.707Z,4.43
2022-10-28T04:25:46.552Z,4.10
2022-10-28T04:27:48.405Z,4.40
2022-10-28T04:29:50.119Z,3.83
2022-10-28T04:31:52.374Z,4.10
2022-10-28T04:33:54.234Z,3.87
2022-10-28T04:35:56.139Z,4.10
2022-10-28T04:37:57.838Z,4.80
2022-10-28T04:39:59.662Z,4.87
2022-10-28T04:42:01.309Z,4.20
2022-10-28T04:44:03.027Z,3.90
2022-10-28T04:46:06.123Z,4.10
2022-10-28T04:48:09.847Z,5.07
2022-10-28T04:50:11.608Z,4.30
2022-10-28T04:52:15.665Z,4.53
2022-10-28T04:54:17.821Z,4.57
2022-10-28T04:56:19.575Z,4.53
2022-10-28T04:58:21.443Z,4.50
2022-10-28T05:00:24.728Z,3.93
2022-10-28T05:02:26.678Z,4.27
2022-10-28T05:04:28.390Z,4.40
2022-10-28T05:06:30.102Z,4.40
2022-10-28T05:08:31.906Z,4.43
2022-10-28T05:10:34.884Z,4.63
2022-10-28T05:12:36.575Z,4.30
2022-10-28T05:14:38.326Z,4.60
2022-10-28T05:16:40.210Z,4.33
2022-10-28T05:18:42.114Z,4.60
2022-10-28T05:20:44.334Z,4.83
2022-10-28T05:22:53.721Z,4.03
2022-10-28T05:24:55.886Z,4.00
2022-10-28T05:26:59.769Z,4.23
2022-10-28T05:29:01.533Z,4.43
2022-10-28T05:31:03.630Z,4.90
2022-10-28T05:33:09.007Z,3.87
2022-10-28T05:35:11.073Z,4.80
2022-10-28T05:37:12.863Z,3.87
2022-10-28T05:39:14.558Z,4.50
2022-10-28T05:41:16.477Z,4.17
2022-10-28T05:43:19.326Z,4.90
2022-10-28T05:45:21.443Z,4.50
2022-10-28T05:47:23.202Z,4.27
2022-10-28T05:49:25.066Z,4.20
2022-10-28T05:51:26.806Z,4.20
2022-10-28T05:53:28.707Z,4.30
2022-10-28T05:55:31.514Z,4.30
2022-10-28T05:57:36.336Z,4.40
2022-10-28T05:59:38.507Z,4.63
2022-10-28T06:01:42.978Z,4.33
2022-10-28T06:03:44.768Z,4.37
2022-10-28T06:05:46.487Z,4.20
2022-10-28T06:07:48.187Z,3.97
2022-10-28T06:09:50.694Z,4.40
2022-10-28T06:11:50.818Z,4.00
2022-10-28T06:13:52.580Z,4.30
2022-10-28T06:15:55.943Z,4.40
2022-10-28T06:17:58.210Z,4.07
2022-10-28T06:20:00.070Z,4.43
2022-10-28T06:22:01.889Z,4.20
2022-10-28T06:24:05.119Z,4.50
2022-10-28T06:26:08.399Z,4.70
2022-10-28T06:28:10.475Z,4.03
2022-10-28T06:30:12.610Z,4.07
2022-10-28T06:32:14.886Z,4.20
2022-10-28T06:34:16.705Z,4.70
2022-10-28T06:36:18.447Z,4.13
2022-10-28T06:38:20.421Z,4.57
2022-10-28T06:40:23.622Z,4.30
2022-10-28T06:42:25.386Z,4.53
2022-10-28T06:44:27.137Z,4.37
2022-10-28T06:46:30.124Z,5.17
2022-10-28T06:48:33.365Z,4.43
2022-10-28T06:50:36.130Z,5.30
2022-10-28T06:52:37.850Z,4.30
2022-10-28T06:54:39.625Z,4.67
2022-10-28T06:56:41.390Z,4.40
2022-10-28T06:58:43.489Z,4.00
2022-10-28T07:00:45.282Z,4.50
2022-10-28T07:02:52.401Z,5.00
2022-10-28T07:04:54.228Z,4.30
2022-10-28T07:06:57.135Z,4.40
2022-10-28T07:08:59.011Z,5.10
2022-10-28T07:11:02.549Z,4.87
2022-10-28T07:13:04.514Z,4.77
2022-10-28T07:15:07.028Z,4.57
2022-10-28T07:17:08.864Z,4.77
2022-10-28T07:19:10.631Z,4.33
2022-10-28T07:21:13.986Z,4.20
2022-10-28T07:23:15.986Z,4.93
2022-10-28T07:25:17.841Z,5.10
2022-10-28T07:27:19.799Z,4.80
2022-10-28T07:29:21.543Z,4.70
2022-10-28T07:31:23.284Z,4.77
2022-10-28T07:33:25.056Z,5.13
2022-10-28T07:35:31.268Z,4.57
2022-10-28T07:37:33.093Z,4.87
2022-10-28T07:41:41.634Z,4.20
2022-10-28T07:43:43.373Z,4.30
2022-10-28T07:45:45.402Z,4.13
2022-10-28T07:47:47.098Z,4.57
2022-10-28T07:49:48.932Z,5.00
2022-10-28T07:51:51.611Z,4.50
2022-10-28T07:53:53.428Z,4.27
2022-10-28T07:56:02.109Z,4.53
2022-10-28T07:58:03.914Z,4.17
2022-10-28T08:00:07.701Z,4.13
2022-10-28T08:02:20.426Z,4.50
2022-10-28T08:04:22.346Z,3.73
2022-10-28T08:06:24.141Z,4.60
2022-10-28T08:08:25.941Z,4.53
2022-10-28T08:10:27.723Z,4.00
2022-10-28T08:12:30.821Z,4.00
2022-10-28T08:14:32.641Z,3.97
2022-10-28T08:16:34.589Z,4.10
2022-10-28T08:18:37.799Z,3.80
2022-10-28T08:20:39.500Z,3.67
2022-10-28T08:22:41.510Z,3.87
2022-10-28T08:24:44.653Z,4.40
2022-10-28T08:26:46.403Z,4.10
2022-10-28T08:28:48.294Z,3.90
2022-10-28T08:31:04.110Z,4.03
2022-10-28T08:33:06.329Z,4.20
2022-10-28T08:35:08.567Z,4.10
2022-10-28T08:37:10.445Z,4.50
2022-10-28T08:39:12.277Z,4.60
2022-10-28T08:41:32.939Z,4.53
2022-10-28T08:44:15.580Z,4.07
2022-10-28T08:46:24.703Z,4.13
2022-10-28T08:48:36.485Z,3.97
2022-10-28T08:50:47.597Z,4.57
2022-10-28T08:53:03.494Z,4.07
2022-10-28T08:55:15.349Z,4.13
2022-10-28T08:57:21.545Z,4.00
2022-10-28T08:59:43.158Z,4.13
2022-10-28T09:02:13.419Z,4.13
2022-10-28T09:04:29.921Z,4.37
2022-10-28T09:06:31.674Z,4.30
2022-10-28T09:08:40.345Z,4.43
2022-10-28T09:11:13.937Z,4.33
2022-10-28T09:13:43.217Z,4.37
2022-10-28T09:16:40.048Z,4.27
2022-10-28T09:18:58.925Z,4.00
2022-10-28T09:21:05.482Z,4.00
2022-10-28T09:23:19.168Z,4.33
2022-10-28T09:25:41.591Z,4.77
2022-10-28T09:27:46.234Z,4.20
2022-10-28T09:30:10.937Z,4.07
2022-10-28T09:32:25.728Z,4.30
2022-10-28T09:34:35.587Z,4.30
2022-10-28T09:36:43.383Z,3.90
2022-10-28T09:38:47.739Z,4.30
2022-10-28T09:41:04.106Z,3.83
2022-10-28T09:43:17.543Z,4.87
2022-10-28T09:45:23.647Z,3.97
2022-10-28T09:47:30.236Z,4.17
2022-10-28T09:49:36.558Z,4.40
2022-10-28T09:51:38.456Z,4.27
2022-10-28T09:53:53.657Z,3.90
2022-10-28T09:55:57.124Z,4.70
2022-10-28T09:57:59.719Z,4.20
2022-10-28T10:00:01.729Z,4.13
2022-10-28T10:02:04.824Z,4.17
2022-10-28T10:04:26.011Z,4.27
2022-10-28T10:06:37.240Z,4.53
2022-10-28T10:08:40.626Z,4.10
2022-10-28T10:10:47.169Z,3.70
2022-10-28T10:12:56.320Z,3.80
2022-10-28T10:14:59.369Z,4.30
2022-10-28T10:17:27.966Z,4.27
2022-10-28T10:20:09.537Z,3.83
2022-10-28T10:22:49.167Z,4.47
2022-10-28T10:24:50.891Z,3.90
2022-10-28T10:26:53.185Z,4.10
2022-10-28T10:28:59.389Z,4.13
2022-10-28T10:31:04.325Z,4.37
2022-10-28T10:33:17.384Z,4.70
2022-10-28T10:35:29.550Z,4.67
2022-10-28T10:37:35.681Z,4.83
2022-10-28T10:39:38.431Z,4.17
2022-10-28T10:41:42.668Z,4.30
2022-10-28T10:43:44.385Z,4.20
2022-10-28T10:46:12.957Z,3.87
2022-10-28T10:48:15.839Z,4.63
2022-10-28T10:52:32.224Z,4.07
2022-10-28T10:54:35.797Z,4.53
2022-10-28T10:56:37.894Z,3.93
2022-10-28T10:58:49.931Z,4.17
2022-10-28T11:00:54.065Z,4.77
2022-10-28T11:02:57.446Z,4.30
2022-10-28T11:05:06.429Z,4.73
2022-10-28T11:07:16.122Z,4.83
2022-10-28T11:09:24.273Z,4.13
2022-10-28T11:11:37.510Z,3.70
2022-10-28T11:13:43.535Z,4.47
2022-10-28T11:16:04.272Z,4.80
2022-10-28T11:18:08.962Z,4.60
2022-10-28T11:20:31.092Z,4.60
2022-10-28T11:23:02.116Z,4.23
2022-10-28T11:25:29.917Z,4.27
2022-10-28T11:28:03.066Z,4.40
2022-10-28T11:30:20.552Z,4.13
2022-10-28T11:32:40.205Z,4.80
2022-10-28T11:35:03.079Z,4.67
2022-10-28T11:37:23.674Z,3.90
2022-10-28T11:39:55.869Z,4.40
2022-10-28T11:41:57.791Z,3.60
2022-10-28T11:44:05.084Z,4.00
2022-10-28T11:46:42.447Z,4.00
2022-10-28T11:49:15.484Z,4.00
2022-10-28T11:51:20.271Z,4.37
2022-10-28T11:53:33.722Z,3.93
2022-10-28T11:55:39.820Z,4.67
2022-10-28T11:57:44.576Z,4.30
2022-10-28T12:00:07.415Z,4.30
2022-10-28T12:02:38.339Z,4.97
2022-10-28T12:05:04.817Z,3.97
2022-10-28T12:07:15.601Z,4.43
2022-10-28T12:09:42.146Z,4.50
2022-10-28T12:11:52.585Z,3.87
2022-10-28T12:13:59.397Z,4.10
2022-10-28T12:16:13.543Z,3.57
2022-10-28T12:18:33.657Z,3.97
2022-10-28T12:20:59.750Z,3.83
2022-10-28T12:23:06.741Z,3.90
2022-10-28T12:25:16.884Z,4.83
2022-10-28T12:27:31.261Z,4.53
2022-10-28T12:29:39.110Z,4.13
2022-10-28T12:31:47.502Z,3.60
2022-10-28T12:33:55.209Z,4.57
2022-10-28T12:36:09.997Z,4.23
2022-10-28T12:38:19.159Z,4.00
2022-10-28T12:40:34.980Z,4.33
2022-10-28T12:43:08.437Z,4.13
2022-10-28T12:45:17.095Z,3.97
2022-10-28T12:47:40.533Z,3.57
2022-10-28T12:50:33.637Z,4.03
2022-10-28T12:53:12.885Z,4.00
2022-10-28T12:55:24.774Z,4.13
2022-10-28T12:57:29.001Z,3.78
2022-10-28T12:59:51.904Z,3.65
2022-10-28T13:01:54.501Z,3.60
2022-10-28T13:03:57.014Z,3.33
2022-10-28T13:06:23.804Z,3.75
2022-10-28T13:08:25.634Z,4.18
2022-10-28T13:10:43.052Z,3.67
2022-10-28T13:12:58.476Z,3.90
2022-10-28T13:15:35.091Z,3.88
2022-10-28T13:18:04.483Z,3.70
2022-10-28T13:20:19.678Z,4.00
2022-10-28T13:22:24.059Z,4.37
2022-10-28T13:24:37.739Z,3.80
2022-10-28T13:26:43.821Z,3.60
2022-10-28T13:28:52.201Z,4.32
2022-10-28T13:30:59.756Z,3.87
2022-10-28T13:33:15.446Z,3.67
2022-10-28T13:35:27.343Z,4.32
2022-10-28T13:37:35.217Z,4.25
2022-10-28T13:39:36.890Z,3.55
2022-10-28T13:41:43.520Z,4.10
2022-10-28T13:43:51.141Z,3.53
2022-10-28T13:45:56.301Z,4.03
2022-10-28T13:48:28.860Z,4.43
2022-10-28T13:50:34.043Z,4.10
2022-10-28T13:52:37.784Z,4.10
2022-10-28T13:54:39.659Z,3.85
2022-10-28T13:56:47.195Z,3.47
2022-10-28T13:58:53.519Z,3.92
2022-10-28T14:00:55.396Z,4.13
2022-10-28T14:03:20.881Z,4.10
2022-10-28T14:05:48.670Z,3.87
2022-10-28T14:07:58.309Z,3.80
2022-10-28T14:10:17.500Z,3.43
2022-10-28T14:12:47.637Z,3.87
2022-10-28T14:15:02.775Z,3.53
2022-10-28T14:17:05.576Z,4.23
2022-10-28T14:19:19.926Z,3.50
2022-10-28T14:21:22.592Z,3.47
2022-10-28T14:23:28.056Z,3.53
2022-10-28T14:25:44.948Z,3.33
2022-10-28T14:27:46.726Z,4.00
2022-10-28T14:29:50.825Z,3.63
2022-10-28T14:31:52.607Z,3.87
2022-10-28T14:33:54.255Z,3.27
2022-10-28T14:36:20.306Z,3.67
2022-10-28T14:38:25.080Z,4.40
2022-10-28T14:40:57.138Z,3.87
2022-10-28T14:43:13.404Z,3.70
2022-10-28T14:45:30.721Z,4.23
2022-10-28T14:47:57.419Z,3.83
2022-10-28T14:50:05.093Z,4.80
2022-10-28T14:52:17.688Z,3.90
2022-10-28T14:54:39.778Z,3.67
2022-10-28T14:56:43.700Z,4.43
2022-10-28T14:58:46.178Z,4.53
2022-10-28T15:01:23.878Z,4.13
2022-10-28T15:03:26.053Z,4.20
2022-10-28T15:05:30.555Z,3.93
2022-10-28T15:07:37.833Z,4.00
2022-10-28T15:09:43.310Z,3.80
2022-10-28T15:11:53.014Z,4.27
2022-10-28T15:13:54.849Z,3.90
2022-10-28T15:15:59.441Z,3.77
2022-10-28T15:18:23.749Z,4.00
2022-10-28T15:20:33.498Z,3.97
2022-10-28T15:22:35.270Z,3.73
2022-10-28T15:24:42.991Z,3.70
2022-10-28T15:26:54.439Z,3.87
2022-10-28T15:28:56.251Z,4.40
2022-10-28T15:30:58.066Z,6.93
2022-10-28T15:33:20.835Z,7.77
2022-10-28T15:35:29.692Z,6.40
2022-10-28T15:37:36.450Z,4.77
2022-10-28T15:39:39.364Z,5.47
2022-10-28T15:41:45.341Z,4.17
2022-10-28T15:44:01.755Z,4.60
2022-10-28T15:46:14.988Z,3.97
2022-10-28T15:48:24.789Z,3.87
2022-10-28T15:50:34.647Z,3.63
2022-10-28T15:52:40.362Z,3.80
2022-10-28T15:54:44.187Z,3.83
2022-10-28T15:56:59.831Z,3.63
2022-10-28T15:59:19.640Z,3.70
2022-10-28T16:01:35.667Z,3.67
2022-10-28T16:03:40.401Z,3.93
2022-10-28T16:05:44.088Z,3.33
2022-10-28T16:07:46.301Z,3.87
2022-10-28T16:09:50.195Z,4.10
2022-10-28T16:11:57.352Z,4.50
2022-10-28T16:14:02.793Z,4.40
2022-10-28T16:16:15.536Z,4.03
2022-10-28T16:18:17.453Z,4.00
2022-10-28T16:20:27.097Z,4.33
2022-10-28T16:22:31.010Z,3.80
2022-10-28T16:24:33.023Z,3.70
2022-10-28T16:26:34.909Z,4.00
2022-10-28T16:28:38.054Z,4.17
2022-10-28T16:30:41.155Z,4.63
2022-10-28T16:32:47.313Z,4.47
2022-10-28T16:34:49.438Z,4.70
2022-10-28T16:36:51.589Z,3.70
2022-10-28T16:38:53.334Z,3.77
2022-10-28T16:40:55.180Z,5.03
2022-10-28T16:42:57.536Z,3.67
2022-10-28T16:44:59.546Z,3.30
2022-10-28T16:47:01.314Z,3.83
2022-10-28T16:49:03.151Z,3.80
2022-10-28T16:51:14.682Z,4.13
2022-10-28T16:53:16.723Z,3.43
2022-10-28T16:55:19.511Z,3.70
2022-10-28T16:57:21.824Z,3.30
2022-10-28T16:59:24.074Z,4.10
2022-10-28T17:01:26.178Z,3.80
2022-10-28T17:03:27.930Z,4.23
2022-10-28T17:05:30.222Z,3.60
2022-10-28T17:07:32.048Z,3.40
2022-10-28T17:09:34.006Z,4.17
2022-10-28T17:11:36.037Z,3.67
2022-10-28T17:13:37.839Z,3.80
2022-10-28T17:15:40.537Z,3.90
2022-10-28T17:17:42.329Z,3.77
2022-10-28T17:19:45.577Z,3.60
2022-10-28T17:21:47.288Z,3.47
2022-10-28T17:23:49.310Z,3.13
2022-10-28T17:26:01.941Z,3.40
2022-10-28T17:28:03.912Z,3.53
2022-10-28T17:30:06.918Z,4.60
2022-10-28T17:32:09.075Z,3.90
2022-10-28T17:34:11.508Z,4.27
2022-10-28T17:36:13.218Z,4.13
2022-10-28T17:38:15.028Z,4.20
2022-10-28T17:40:17.105Z,4.60
2022-10-28T17:42:18.879Z,3.90
2022-10-28T17:44:20.896Z,3.93
2022-10-28T17:46:23.045Z,3.43
2022-10-28T17:48:24.754Z,4.00
2022-10-28T17:50:26.585Z,4.67
2022-10-28T17:52:29.619Z,4.27
2022-10-28T17:54:33.778Z,3.90
2022-10-28T17:56:36.467Z,3.60
2022-10-28T17:58:38.337Z,4.07
2022-10-28T18:00:40.110Z,3.80
2022-10-28T18:02:41.849Z,3.80
2022-10-28T18:04:43.664Z,3.20
2022-10-28T18:06:46.595Z,3.40
2022-10-28T18:10:57.179Z,3.20
2022-10-28T18:12:58.875Z,3.57
2022-10-28T18:15:00.655Z,3.60
2022-10-28T18:17:02.852Z,3.70
2022-10-28T18:19:05.777Z,3.47
2022-10-28T18:21:11.303Z,3.20
2022-10-28T18:23:13.032Z,3.90
2022-10-28T18:25:15.009Z,3.97
2022-10-28T18:27:16.882Z,3.77
2022-10-28T18:29:18.620Z,3.53
2022-10-28T18:31:20.667Z,3.30
2022-10-28T18:33:22.455Z,3.93
2022-10-28T18:35:24.517Z,3.87
2022-10-28T18:37:28.307Z,3.63
2022-10-28T18:39:31.005Z,3.87
2022-10-28T18:41:34.979Z,4.03
2022-10-28T18:43:36.711Z,3.60
2022-10-28T18:45:38.446Z,4.47
2022-10-28T18:47:40.254Z,3.50
2022-10-28T18:49:42.110Z,3.73
2022-10-28T18:51:44.081Z,3.37
2022-10-28T18:53:51.999Z,4.80
2022-10-28T18:56:03.730Z,4.57
2022-10-28T18:58:05.914Z,3.80
2022-10-28T19:00:18.358Z,4.23
2022-10-28T19:02:21.561Z,4.17
2022-10-28T19:04:27.878Z,3.60
2022-10-28T19:06:32.707Z,3.87
2022-10-28T19:08:35.511Z,4.00
2022-10-28T19:10:37.595Z,4.00
2022-10-28T19:12:42.924Z,3.90
2022-10-28T19:14:46.844Z,4.30
2022-10-28T19:16:48.554Z,4.10
2022-10-28T19:18:57.455Z,3.70
2022-10-28T19:21:04.284Z,4.40
2022-10-28T19:23:06.208Z,3.67
2022-10-28T19:25:08.224Z,3.53
2022-10-28T19:27:09.995Z,4.17
2022-10-28T19:29:12.060Z,3.63
2022-10-28T19:31:16.895Z,4.00
2022-10-28T19:33:18.755Z,3.50
2022-10-28T19:35:20.453Z,4.20
2022-10-28T19:37:23.120Z,3.87
2022-10-28T19:39:24.943Z,3.77
2022-10-28T19:41:28.920Z,3.87
2022-10-28T19:43:30.870Z,3.70
2022-10-28T19:45:34.957Z,3.60
2022-10-28T19:47:36.650Z,3.83
2022-10-28T19:49:40.648Z,4.13
2022-10-28T19:51:45.281Z,3.83
2022-10-28T19:53:51.944Z,4.43
2022-10-28T19:55:58.398Z,3.80
2022-10-28T19:58:00.137Z,4.10
2022-10-28T20:00:02.092Z,3.93
2022-10-28T20:02:13.253Z,3.90
2022-10-28T20:04:15.238Z,3.70
2022-10-28T20:06:23.044Z,3.73
2022-10-28T20:08:24.954Z,3.53
2022-10-28T20:10:27.076Z,3.93
2022-10-28T20:12:29.236Z,4.23
2022-10-28T20:14:31.703Z,3.90
2022-10-28T20:16:34.283Z,3.93
2022-10-28T20:18:36.181Z,3.53
2022-10-28T20:20:37.913Z,3.80
2022-10-28T20:22:42.369Z,4.00
2022-10-28T20:24:44.357Z,3.73
2022-10-28T20:26:46.098Z,3.77
2022-10-28T20:28:47.811Z,3.90
2022-10-28T20:31:08.317Z,3.70
2022-10-28T20:33:10.148Z,4.33
2022-10-28T20:35:11.899Z,4.13
2022-10-28T20:37:13.782Z,4.20
2022-10-28T20:39:22.992Z,3.90
2022-10-28T20:41:26.606Z,4.57
2022-10-28T20:43:29.542Z,3.90
2022-10-28T20:45:31.316Z,4.07
2022-10-28T20:47:33.022Z,4.00
2022-10-28T20:49:35.038Z,3.63
2022-10-28T20:51:36.865Z,3.90
2022-10-28T20:53:38.693Z,4.20
2022-10-28T20:55:45.730Z,4.13
2022-10-28T20:57:47.430Z,4.23
2022-10-28T20:59:49.298Z,3.70
2022-10-28T21:01:51.594Z,3.70
2022-10-28T21:03:55.653Z,3.70
2022-10-28T21:05:58.805Z,3.83
2022-10-28T21:08:00.546Z,3.50
2022-10-28T21:10:02.318Z,4.20
2022-10-28T21:12:04.377Z,3.50
2022-10-28T21:14:06.261Z,4.27
2022-10-28T21:16:11.627Z,4.33
2022-10-28T21:18:13.776Z,4.00
2022-10-28T21:20:15.597Z,3.90
2022-10-28T21:22:18.407Z,3.93
2022-10-28T21:24:20.219Z,3.83
2022-10-28T21:26:22.195Z,4.70
2022-10-28T21:28:24.250Z,4.73
2022-10-28T21:30:27.248Z,4.23
2022-10-28T21:32:29.043Z,4.07
2022-10-28T21:34:30.747Z,3.73
2022-10-28T21:36:32.612Z,4.17
2022-10-28T21:38:36.452Z,4.10
2022-10-28T21:40:38.251Z,3.97
2022-10-28T21:42:40.148Z,3.70
2022-10-28T21:44:41.802Z,4.00
2022-10-28T21:46:43.697Z,3.80
2022-10-28T21:48:45.790Z,3.77
2022-10-28T21:50:56.067Z,3.60
2022-10-28T21:52:58.013Z,4.10
2022-10-28T21:55:05.886Z,3.70
2022-10-28T21:57:12.433Z,4.00
2022-10-28T21:59:14.192Z,3.70
2022-10-28T22:01:21.735Z,3.63
2022-10-28T22:03:23.678Z,3.67
2022-10-28T22:05:25.436Z,3.77
2022-10-28T22:07:29.095Z,3.80
2022-10-28T22:09:34.966Z,3.60
2022-10-28T22:11:39.235Z,4.30
2022-10-28T22:13:42.016Z,3.93
2022-10-28T22:15:43.840Z,4.17
2022-10-28T22:17:45.672Z,3.80
2022-10-28T22:19:48.886Z,4.77
2022-10-28T22:21:50.890Z,4.03
2022-10-28T22:23:53.875Z,3.63
2022-10-28T22:25:55.547Z,4.20
2022-10-28T22:27:57.332Z,3.70
2022-10-28T22:29:59.154Z,3.73
2022-10-28T22:32:02.631Z,3.83
2022-10-28T22:34:05.480Z,3.47
2022-10-28T22:36:16.051Z,3.70
2022-10-28T22:38:18.667Z,3.83
2022-10-28T22:40:20.419Z,3.63
2022-10-28T22:42:23.420Z,4.00
2022-10-28T22:44:25.124Z,3.67
2022-10-28T22:46:29.327Z,3.93
2022-10-28T22:48:32.244Z,4.03
2022-10-28T22:50:34.119Z,3.73
2022-10-28T22:52:35.875Z,3.93
2022-10-28T22:54:37.674Z,3.87
2022-10-28T22:56:40.469Z,3.77
2022-10-28T22:58:42.591Z,4.10
2022-10-28T23:00:44.761Z,4.13
2022-10-28T23:02:46.573Z,3.67
2022-10-28T23:04:48.393Z,3.73
2022-10-28T23:06:50.108Z,3.90
2022-10-28T23:08:52.077Z,3.97
2022-10-28T23:10:53.974Z,3.80
2022-10-28T23:13:00.703Z,3.60
2022-10-28T23:15:02.487Z,4.40
2022-10-28T23:17:04.683Z,3.93
2022-10-28T23:19:06.432Z,4.13
2022-10-28T23:21:15.376Z,3.83
2022-10-28T23:23:17.353Z,4.10
2022-10-28T23:25:19.271Z,4.30
2022-10-28T23:27:21.057Z,4.40
2022-10-28T23:29:22.916Z,4.17
2022-10-28T23:31:25.068Z,4.07
2022-10-28T23:33:29.457Z,4.30
2022-10-28T23:35:31.238Z,4.70
2022-10-28T23:37:33.503Z,4.20
2022-10-28T23:39:35.194Z,3.93
2022-10-28T23:41:37.272Z,3.90
2022-10-28T23:43:39.214Z,4.63
2022-10-28T23:45:41.082Z,4.30
2022-10-28T23:47:42.917Z,4.07
2022-10-28T23:49:47.314Z,3.83
2022-10-28T23:51:49.128Z,3.87
2022-10-28T23:53:51.515Z,3.77
2022-10-28T23:55:53.549Z,3.87
2022-10-28T23:57:59.289Z,4.30
